Time;durP1;ratioP1;P1;durP2;ratioP2;P2;SDS_P1;SDS_P2;PMS_P1;PMS_P2;Temp;Humidity;BMP_temperature;BMP_pressure;BME280_temperature;BME280_humidity;BME280_pressure;Samples;Min_cycle;Max_cycle;Signal;HPM_P1;HPM_P2
2022/07/14 00:01:00;;;;;;;3.83;2.10;;;;;;;22.65;44.08;100180.09;10396277;28;20056;-80
2022/07/14 00:06:02;;;;;;;4.03;1.92;;;;;;;22.47;44.76;100184.69;10374406;28;20049;-80
2022/07/14 00:11:04;;;;;;;6.90;2.80;;;;;;;22.47;44.81;100173.19;10397589;28;20057;-80
2022/07/14 00:16:06;;;;;;;6.40;2.00;;;;;;;22.48;44.51;100172.19;10380199;28;20424;-80
2022/07/14 00:21:13;;;;;;;4.15;2.10;;;;;;;22.46;44.96;100172.34;10396450;28;20053;-79
2022/07/14 00:26:15;;;;;;;4.90;2.03;;;;;;;22.40;45.01;100166.84;10396766;28;20057;-79
2022/07/14 00:31:16;;;;;;;7.03;2.22;;;;;;;22.30;45.34;100164.31;10412145;28;20103;-79
2022/07/14 00:36:18;;;;;;;4.63;2.25;;;;;;;22.28;45.50;100176.97;10394506;28;20143;-79
2022/07/14 00:41:20;;;;;;;5.18;2.00;;;;;;;22.22;45.64;100169.59;10378288;28;20554;-79
2022/07/14 00:46:22;;;;;;;5.15;2.00;;;;;;;22.11;45.75;100167.22;10410692;28;20057;-79
2022/07/14 00:51:24;;;;;;;6.35;2.10;;;;;;;22.07;45.77;100149.88;10378275;28;20486;-79
2022/07/14 00:56:26;;;;;;;4.70;2.25;;;;;;;21.92;45.90;100150.63;10378609;28;20477;-79
2022/07/14 01:01:31;;;;;;;3.78;2.20;;;;;;;21.70;46.14;100152.81;10376898;28;20053;-80
2022/07/14 01:06:33;;;;;;;8.77;3.08;;;;;;;21.70;46.16;100149.34;10378103;28;20127;-79
2022/07/14 01:11:34;;;;;;;4.95;2.00;;;;;;;21.64;46.65;100148.13;10377851;28;20049;-79
2022/07/14 01:16:36;;;;;;;4.40;1.98;;;;;;;21.59;46.87;100146.94;10394687;28;20488;-80
2022/07/14 01:21:38;;;;;;;3.58;2.08;;;;;;;21.77;46.60;100145.03;10376536;28;20062;-79
2022/07/14 01:26:40;;;;;;;3.92;2.10;;;;;;;21.94;46.25;100152.13;10408849;28;20053;-79
2022/07/14 01:31:42;;;;;;;4.45;2.20;;;;;;;21.73;46.38;100155.19;10411157;28;20053;-79
2022/07/14 01:36:45;;;;;;;4.20;2.03;;;;;;;21.62;47.73;100155.44;10378101;28;20041;-79
2022/07/14 01:41:47;;;;;;;4.97;2.33;;;;;;;21.47;47.76;100153.50;10394325;28;20183;-79
2022/07/14 01:46:49;;;;;;;8.38;2.10;;;;;;;21.51;47.48;100136.22;10391224;28;20507;-79
2022/07/14 01:51:51;;;;;;;3.80;2.00;;;;;;;21.67;47.34;100144.31;10388688;28;20601;-80
2022/07/14 01:56:53;;;;;;;3.92;2.13;;;;;;;21.59;47.79;100153.09;10394119;28;20049;-80
2022/07/14 02:01:54;;;;;;;5.82;2.20;;;;;;;21.60;47.88;100143.25;10394126;28;20057;-79
2022/07/14 02:06:57;;;;;;;4.95;2.10;;;;;;;21.65;47.44;100138.31;10397145;28;20140;-80
2022/07/14 02:12:10;;;;;;;5.85;2.40;;;;;;;21.57;47.38;100141.78;10397227;28;20087;-79
2022/07/14 02:17:12;;;;;;;4.72;2.20;;;;;;;21.55;47.36;100133.09;10399864;28;20047;-79
2022/07/14 02:22:14;;;;;;;6.88;2.30;;;;;;;21.46;47.73;100126.03;10397103;28;20462;-79
2022/07/14 02:27:16;;;;;;;6.40;2.40;;;;;;;21.37;48.81;100132.31;10398962;28;20053;-80
2022/07/14 02:32:17;;;;;;;3.65;2.30;;;;;;;21.43;49.38;100137.03;10395303;28;20053;-79
2022/07/14 02:37:19;;;;;;;5.07;2.40;;;;;;;21.54;48.71;100125.25;10400021;28;20054;-80
2022/07/14 02:42:21;;;;;;;8.40;2.10;;;;;;;21.56;48.70;100129.44;10406313;28;20095;-80
2022/07/14 02:47:22;;;;;;;3.92;2.40;;;;;;;21.44;48.99;100127.19;10396761;28;20049;-79
2022/07/14 02:52:24;;;;;;;6.15;2.30;;;;;;;21.33;49.33;100127.47;10405605;28;20049;-79
2022/07/14 02:57:26;;;;;;;7.32;2.20;;;;;;;21.41;49.05;100138.16;10404843;28;20061;-80
2022/07/14 03:02:28;;;;;;;3.95;2.13;;;;;;;21.46;48.69;100123.38;10403937;28;20057;-80
2022/07/14 03:07:29;;;;;;;4.63;2.65;;;;;;;21.44;48.62;100137.84;10399275;28;20049;-79
2022/07/14 03:12:31;;;;;;;3.58;2.05;;;;;;;21.39;48.89;100137.47;10398193;28;20061;-80
2022/07/14 03:17:33;;;;;;;6.82;2.30;;;;;;;21.14;49.28;100124.94;10399922;28;20140;-79
2022/07/14 03:22:35;;;;;;;5.30;2.20;;;;;;;21.04;49.72;100127.69;10397367;28;20107;-79
2022/07/14 03:27:38;;;;;;;3.72;2.13;;;;;;;21.04;48.52;100138.34;10398355;28;20050;-79
2022/07/14 03:32:40;;;;;;;6.32;2.50;;;;;;;21.21;48.30;100139.31;10398705;28;20053;-79
2022/07/14 03:37:43;;;;;;;9.07;2.30;;;;;;;21.31;48.52;100132.91;10412541;28;20049;-79
2022/07/14 03:42:44;;;;;;;5.32;2.40;;;;;;;21.24;49.14;100131.84;10397223;28;20045;-79
2022/07/14 03:47:51;;;;;;;6.32;2.10;;;;;;;21.27;48.76;100128.06;10398480;28;20160;-79
2022/07/14 03:52:53;;;;;;;10.23;2.63;;;;;;;21.29;48.28;100118.94;10397757;28;20084;-79
2022/07/14 03:57:55;;;;;;;4.35;2.28;;;;;;;21.41;48.25;100114.22;10396566;28;20403;-80
2022/07/14 04:02:56;;;;;;;3.22;2.10;;;;;;;21.42;48.04;100110.53;10397944;28;20049;-80
2022/07/14 04:07:59;;;;;;;5.82;2.20;;;;;;;21.25;48.97;100106.09;10387719;28;20136;-79
2022/07/14 04:13:00;;;;;;;5.07;2.28;;;;;;;21.19;49.10;100101.38;10397254;28;20064;-79
2022/07/14 04:18:02;;;;;;;4.93;2.30;;;;;;;21.20;49.11;100098.56;10397445;28;20486;-79
2022/07/14 04:23:04;;;;;;;5.78;2.30;;;;;;;21.15;49.27;100100.84;10396709;28;20057;-79
2022/07/14 04:28:06;;;;;;;6.47;2.05;;;;;;;21.31;48.66;100106.31;10394321;28;20499;-79
2022/07/14 04:33:12;;;;;;;4.85;2.13;;;;;;;21.55;48.40;100113.63;10396341;28;20061;-79
2022/07/14 04:38:13;;;;;;;5.13;2.22;;;;;;;21.55;48.41;100111.81;10396610;28;20076;-79
2022/07/14 04:43:17;;;;;;;4.40;2.00;;;;;;;21.55;48.67;100119.81;10395983;28;20111;-79
2022/07/14 04:48:18;;;;;;;6.57;2.55;;;;;;;21.69;48.02;100118.38;10393946;28;20080;-80
2022/07/14 04:53:20;;;;;;;5.93;2.30;;;;;;;22.31;47.27;100122.53;10396967;28;20104;-80
2022/07/14 04:58:25;;;;;;;4.70;2.53;;;;;;;22.34;46.68;100133.69;10394092;28;20446;-79
2022/07/14 05:03:27;;;;;;;6.30;2.40;;;;;;;22.06;47.10;100121.59;10394715;28;20052;-80
2022/07/14 05:08:29;;;;;;;5.70;2.40;;;;;;;21.99;47.73;100135.66;10396801;28;20057;-80
2022/07/14 05:13:31;;;;;;;6.35;2.67;;;;;;;21.79;47.58;100124.41;10394049;28;20636;-80
2022/07/14 05:18:32;;;;;;;4.22;2.20;;;;;;;21.90;47.55;100119.63;10394233;28;20077;-80
2022/07/14 05:23:34;;;;;;;7.28;2.20;;;;;;;21.74;47.90;100124.06;10393016;28;20060;-80
2022/07/14 05:28:36;;;;;;;3.85;2.30;;;;;;;21.82;48.41;100116.13;10394239;28;20091;-80
2022/07/14 05:33:38;;;;;;;6.32;2.85;;;;;;;21.95;47.12;100121.81;10406985;28;20152;-80
2022/07/14 05:38:40;;;;;;;5.75;2.50;;;;;;;22.31;46.30;100123.31;10392915;28;20922;-80
2022/07/14 05:43:42;;;;;;;6.93;2.55;;;;;;;23.11;44.68;100127.16;10393768;28;20127;-80
2022/07/14 05:48:46;;;;;;;5.25;2.42;;;;;;;23.37;43.99;100131.31;10388408;28;20749;-78
2022/07/14 05:53:48;;;;;;;8.93;2.63;;;;;;;23.24;44.05;100123.00;10384333;28;20058;-79
2022/07/14 05:58:52;;;;;;;5.35;2.50;;;;;;;23.46;43.61;100122.31;10391426;28;20494;-80
2022/07/14 06:03:59;;;;;;;6.53;2.40;;;;;;;23.73;43.27;100102.41;10390232;28;20080;-80
2022/07/14 06:09:10;;;;;;;7.13;2.40;;;;;;;23.92;42.77;100111.88;10385382;28;20060;-79
2022/07/14 06:14:15;;;;;;;5.78;2.55;;;;;;;23.81;43.06;100098.88;10398763;28;20053;-79
2022/07/14 06:19:17;;;;;;;5.95;2.60;;;;;;;23.90;42.94;100096.00;10397603;28;20645;-80
2022/07/14 06:24:19;;;;;;;5.80;2.50;;;;;;;24.32;42.40;100118.88;10395874;28;20053;-80
2022/07/14 06:29:21;;;;;;;6.47;2.90;;;;;;;24.90;40.79;100103.16;10395135;28;20081;-81
2022/07/14 06:34:24;;;;;;;6.85;2.35;;;;;;;24.54;41.47;100108.22;10393151;28;20521;-81
2022/07/14 06:39:27;;;;;;;5.30;2.30;;;;;;;24.54;41.71;100104.72;10390286;28;20049;-81
2022/07/14 06:44:29;;;;;;;9.80;2.70;;;;;;;24.46;41.77;100110.13;10393386;28;20523;-80
2022/07/14 06:49:31;;;;;;;7.00;2.33;;;;;;;24.66;41.49;100092.59;10389806;28;20119;-80
2022/07/14 06:54:33;;;;;;;6.05;2.30;;;;;;;24.95;41.14;100100.78;10394971;28;20103;-80
2022/07/14 06:59:35;;;;;;;5.75;2.42;;;;;;;25.16;40.19;100097.44;10388934;28;20630;-80
2022/07/14 07:04:37;;;;;;;4.97;2.40;;;;;;;24.54;41.31;100102.88;10395466;28;20411;-80
2022/07/14 07:09:39;;;;;;;5.70;2.65;;;;;;;24.27;42.05;100095.34;10395028;28;20423;-80
2022/07/14 07:14:40;;;;;;;6.80;2.70;;;;;;;24.11;42.24;100101.63;10396114;28;20060;-80
2022/07/14 07:19:42;;;;;;;6.07;2.78;;;;;;;24.09;42.46;100100.97;10397219;28;20049;-80
2022/07/14 07:24:44;;;;;;;7.20;2.50;;;;;;;24.27;42.10;100096.19;10396146;28;20108;-80
2022/07/14 07:29:46;;;;;;;6.15;2.30;;;;;;;24.58;42.05;100092.66;10393786;28;20064;-80
2022/07/14 07:34:48;;;;;;;10.18;2.80;;;;;;;24.61;41.59;100092.31;10391632;28;20053;-80
2022/07/14 07:39:49;;;;;;;6.03;2.60;;;;;;;24.87;41.79;100100.84;10395622;28;20104;-80
2022/07/14 07:44:51;;;;;;;6.82;2.65;;;;;;;25.12;41.18;100107.66;10391185;28;20199;-80
2022/07/14 07:49:53;;;;;;;9.18;3.30;;;;;;;25.06;41.00;100103.84;10392850;28;20050;-80
2022/07/14 07:54:55;;;;;;;5.55;2.60;;;;;;;25.21;40.81;100098.53;10391430;28;20046;-80
2022/07/14 08:00:17;;;;;;;8.02;3.08;;;;;;;25.62;39.95;100097.16;10391680;28;20053;-81
2022/07/14 08:05:25;;;;;;;4.68;2.70;;;;;;;26.36;38.37;100095.25;10390141;28;20060;-80
2022/07/14 08:10:47;;;;;;;7.53;2.75;;;;;;;26.24;38.75;100091.41;10391826;28;20049;-80
2022/07/14 08:15:50;;;;;;;7.93;2.72;;;;;;;26.09;38.82;100104.00;10390562;28;20174;-80
2022/07/14 08:20:52;;;;;;;6.93;2.97;;;;;;;26.45;38.43;100088.75;10383850;28;20049;-79
2022/07/14 08:25:54;;;;;;;7.65;2.67;;;;;;;26.57;37.83;100096.13;10385286;28;20553;-78
2022/07/14 08:30:56;;;;;;;6.35;2.63;;;;;;;26.16;38.55;100094.19;10386854;28;20045;-79
2022/07/14 08:35:58;;;;;;;6.32;2.58;;;;;;;25.66;39.40;100097.59;10390028;28;20076;-79
2022/07/14 08:41:00;;;;;;;7.13;2.90;;;;;;;25.59;39.62;100099.38;10392765;28;20049;-79
2022/07/14 08:46:04;;;;;;;7.13;2.70;;;;;;;25.83;39.47;100102.59;10390217;28;20049;-79
2022/07/14 08:51:08;;;;;;;8.77;3.10;;;;;;;25.89;39.42;100096.47;10387536;28;20053;-82
2022/07/14 08:56:14;;;;;;;8.63;3.35;;;;;;;26.23;38.82;100093.25;10384466;28;20430;-82
2022/07/14 09:01:16;;;;;;;6.55;2.78;;;;;;;26.85;37.85;100090.03;10384780;28;20107;-78
2022/07/14 09:06:54;;;;;;;6.05;2.42;;;;;;;27.60;35.45;100071.41;10393639;28;20075;-78
2022/07/14 09:12:04;;;;;;;5.20;2.20;;;;;;;26.62;36.07;100082.16;10392887;28;20053;-78
2022/07/14 09:17:20;;;;;;;7.50;2.20;;;;;;;26.31;34.90;100073.53;10391308;28;20053;-80
2022/07/14 09:22:27;;;;;;;3.72;1.90;;;;;;;26.48;35.06;100074.97;10375333;28;20143;-80
2022/07/14 09:27:29;;;;;;;6.13;2.15;;;;;;;27.35;32.14;100063.81;10392951;28;20057;-80
2022/07/14 09:32:51;;;;;;;5.30;1.83;;;;;;;28.65;28.73;100048.47;10389712;28;20422;-80
2022/07/14 09:37:54;;;;;;;6.07;2.60;;;;;;;29.51;29.35;100050.97;10388227;28;20507;-79
2022/07/14 09:43:00;;;;;;;6.30;2.10;;;;;;;30.23;27.52;100047.19;10381141;28;20053;-79
2022/07/14 09:48:08;;;;;;;8.05;2.20;;;;;;;30.58;26.13;100041.19;10388728;28;20083;-79
2022/07/14 09:53:17;;;;;;;6.70;2.30;;;;;;;29.71;26.85;100042.81;10390891;28;20057;-78
2022/07/14 09:58:21;;;;;;;4.95;2.00;;;;;;;30.01;27.57;100027.78;10392395;28;20164;-78
2022/07/14 10:03:40;;;;;;;7.57;2.10;;;;;;;29.62;27.06;100017.97;10393671;28;20112;-78
2022/07/14 10:08:46;;;;;;;5.38;2.10;;;;;;;29.52;26.55;100012.19;10391134;28;20088;-79
2022/07/14 10:13:50;;;;;;;6.15;2.22;;;;;;;29.41;25.77;100012.03;10387940;28;20057;-79
2022/07/14 10:18:52;;;;;;;4.25;2.10;;;;;;;29.57;27.13;100003.47;10389447;28;20069;-79
2022/07/14 10:23:55;;;;;;;5.60;2.30;;;;;;;29.65;26.97;100003.25;10388166;28;20423;-79
2022/07/14 10:28:57;;;;;;;5.25;1.98;;;;;;;29.95;25.81;99995.47;10385659;28;20495;-80
2022/07/14 10:34:23;;;;;;;4.68;1.80;;;;;;;30.21;24.57;99985.38;10391445;28;20049;-81
2022/07/14 10:39:37;;;;;;;10.13;2.25;;;;;;;29.77;24.31;99991.56;10387116;28;20080;-78
2022/07/14 10:44:45;;;;;;;7.22;1.80;;;;;;;29.79;24.71;99988.66;10384243;28;20510;-78
2022/07/14 10:50:09;;;;;;;6.47;2.03;;;;;;;29.56;23.93;99989.16;10383233;28;20124;-78
2022/07/14 10:55:17;;;;;;;3.78;1.70;;;;;;;29.70;23.68;100008.84;10385246;28;20089;-78
2022/07/14 11:00:40;;;;;;;4.80;1.80;;;;;;;30.11;23.22;100009.28;10385941;28;20096;-78
2022/07/14 11:06:03;;;;;;;4.55;1.90;;;;;;;30.32;23.41;100006.25;10393293;28;20068;-78
2022/07/14 11:11:23;;;;;;;4.53;2.00;;;;;;;29.91;24.31;100005.81;10394671;28;20057;-79
2022/07/14 11:16:55;;;;;;;4.50;1.90;;;;;;;29.38;24.32;99997.06;10391590;28;20469;-79
2022/07/14 11:22:23;;;;;;;4.82;1.90;;;;;;;29.03;24.17;100001.09;10392096;28;20052;-78
2022/07/14 11:27:34;;;;;;;5.57;1.90;;;;;;;29.49;23.42;100001.00;10392570;28;20049;-79
2022/07/14 11:32:38;;;;;;;3.92;1.65;;;;;;;29.92;23.59;99987.78;10392036;28;20060;-78
2022/07/14 11:38:00;;;;;;;5.07;1.98;;;;;;;29.64;22.65;99982.72;10386251;28;20053;-78
2022/07/14 11:43:34;;;;;;;5.45;1.88;;;;;;;29.78;22.20;99995.09;10392733;28;20701;-79
2022/07/14 11:48:39;;;;;;;5.60;2.03;;;;;;;29.50;23.45;100005.38;10394334;28;20049;-78
2022/07/14 11:53:41;;;;;;;4.45;2.10;;;;;;;29.64;23.64;100015.06;10390570;28;20057;-79
2022/07/14 11:58:45;;;;;;;13.55;1.92;;;;;;;29.58;23.36;100026.72;10386549;28;20049;-79
2022/07/14 12:03:47;;;;;;;7.15;2.03;;;;;;;29.13;24.24;100027.59;10389029;28;20502;-78
2022/07/14 12:08:50;;;;;;;6.43;1.70;;;;;;;28.88;24.89;100040.84;10390089;28;20057;-78
2022/07/14 12:14:15;;;;;;;6.13;2.17;;;;;;;28.35;25.38;100033.72;10388290;28;20136;-78
2022/07/14 12:19:27;;;;;;;5.82;1.98;;;;;;;28.26;25.73;100036.56;10388665;28;20045;-78
2022/07/14 12:24:30;;;;;;;9.93;2.60;;;;;;;27.93;26.63;100042.88;10373420;28;20092;-78
2022/07/14 12:29:33;;;;;;;10.55;2.55;;;;;;;27.71;28.46;100052.06;10387382;28;20053;-78
2022/07/14 12:34:38;;;;;;;9.93;2.40;;;;;;;27.62;28.31;100050.53;10388082;28;20107;-78
2022/07/14 12:39:40;;;;;;;6.30;2.42;;;;;;;27.86;28.16;100044.69;10398387;28;20103;-78
2022/07/14 12:44:57;;;;;;;6.50;2.30;;;;;;;27.59;29.77;100043.69;10389495;28;20073;-78
2022/07/14 12:50:22;;;;;;;6.10;2.30;;;;;;;27.84;29.30;100044.91;10389459;28;20084;-77
2022/07/14 12:55:44;;;;;;;9.38;2.80;;;;;;;27.99;29.31;100034.00;10388137;28;20053;-78
2022/07/14 13:00:47;;;;;;;10.48;2.60;;;;;;;27.88;30.05;100032.72;10391049;28;20053;-78
2022/07/14 13:05:56;;;;;;;9.85;2.80;;;;;;;28.21;29.91;100025.59;10394432;28;20076;-78
2022/07/14 13:11:02;;;;;;;8.70;3.15;;;;;;;27.87;30.41;100019.50;10385248;28;20515;-78
2022/07/14 13:16:20;;;;;;;7.80;2.80;;;;;;;27.95;30.80;100006.69;10387681;28;20058;-79
2022/07/14 13:21:47;;;;;;;8.93;2.70;;;;;;;27.45;30.95;100009.72;10376618;28;20053;-79
2022/07/14 13:27:07;;;;;;;9.43;2.60;;;;;;;27.91;31.13;100015.38;10385974;28;20057;-78
2022/07/14 13:32:18;;;;;;;6.57;2.60;;;;;;;28.26;29.25;100003.44;10385087;28;20064;-79
2022/07/14 13:37:22;;;;;;;8.35;2.70;;;;;;;28.38;28.31;100012.59;10388721;28;20054;-78
2022/07/14 13:42:25;;;;;;;7.95;2.40;;;;;;;28.63;28.14;100020.91;10379687;28;20045;-79
2022/07/14 13:47:28;;;;;;;6.53;2.05;;;;;;;29.04;27.73;100008.97;10385333;28;20057;-79
2022/07/14 13:52:30;;;;;;;6.32;2.47;;;;;;;28.84;27.08;100016.22;10387267;28;20454;-78
2022/07/14 13:57:34;;;;;;;5.75;2.20;;;;;;;28.77;27.55;100001.88;10384994;28;20107;-79
2022/07/14 14:08:39;;;;;;;6.05;2.10;;;;;;;28.32;26.38;100001.88;10387038;28;20056;-79
2022/07/14 14:13:41;;;;;;;4.63;2.30;;;;;;;28.06;26.54;99991.81;10388400;28;20084;-78
2022/07/14 14:18:43;;;;;;;5.07;2.13;;;;;;;28.11;26.39;99986.69;10386439;28;20050;-79
2022/07/14 14:23:45;;;;;;;4.47;2.22;;;;;;;28.24;26.34;99994.75;10385106;28;20053;-78
2022/07/14 14:28:49;;;;;;;7.28;2.13;;;;;;;28.46;25.00;100000.84;10385316;28;20049;-79
2022/07/14 14:33:55;;;;;;;7.68;2.10;;;;;;;28.77;24.64;100006.44;10390764;28;20108;-79
2022/07/14 14:39:03;;;;;;;4.63;2.08;;;;;;;28.70;24.40;100008.31;10396498;28;20396;-79
2022/07/14 14:44:06;;;;;;;5.30;2.13;;;;;;;28.90;25.43;100006.47;10395406;28;20065;-79
2022/07/14 14:49:09;;;;;;;5.25;2.20;;;;;;;28.77;24.68;99991.13;10394262;28;20053;-78
2022/07/14 14:55:01;;;;;;;9.90;2.13;;;;;;;28.76;24.08;100008.31;10385544;28;20444;-79
2022/07/14 15:00:09;;;;;;;9.60;2.33;;;;;;;28.37;23.92;100016.34;10389640;28;20076;-79
2022/07/14 15:05:12;;;;;;;7.25;2.40;;;;;;;28.09;24.91;100008.41;10393799;28;20470;-79
2022/07/14 15:10:16;;;;;;;5.50;2.10;;;;;;;27.95;26.02;100006.69;10392561;28;20052;-79
2022/07/14 15:15:20;;;;;;;5.70;2.20;;;;;;;28.01;25.23;100008.56;10390905;28;20056;-79
2022/07/14 15:20:31;;;;;;;7.07;2.17;;;;;;;27.94;25.67;100001.50;10395849;28;20059;-79
2022/07/14 15:25:35;;;;;;;6.03;2.30;;;;;;;27.68;25.44;100004.06;10394528;28;20099;-79
2022/07/14 15:30:36;;;;;;;5.07;2.33;;;;;;;27.40;25.96;100009.50;10394410;28;20916;-79
2022/07/14 15:35:39;;;;;;;6.95;2.38;;;;;;;27.08;25.84;100005.53;10392431;28;20128;-78
2022/07/14 15:46:02;;;;;;;9.15;2.30;;;;;;;26.99;25.81;100014.78;10390643;28;20470;-78
2022/07/14 15:51:06;;;;;;;7.25;2.60;;;;;;;27.16;26.15;100005.41;10387945;28;20293;-78
2022/07/14 15:56:12;;;;;;;8.02;2.45;;;;;;;27.02;26.27;100009.00;10389231;28;20081;-78
2022/07/14 16:01:18;;;;;;;6.88;2.50;;;;;;;26.67;26.67;100009.94;10391132;28;20053;-78
2022/07/14 16:06:21;;;;;;;5.75;2.40;;;;;;;26.91;26.17;99998.00;10393068;28;20057;-78
2022/07/14 16:17:45;;;;;;;10.35;2.30;;;;;;;27.12;26.40;100001.44;10392876;28;20037;-78
2022/07/14 16:22:50;;;;;;;6.50;2.40;;;;;;;27.09;26.69;99999.16;10390234;28;20139;-78
2022/07/14 16:27:54;;;;;;;5.07;2.25;;;;;;;27.01;25.97;100017.25;10389279;28;20091;-79
2022/07/14 16:32:59;;;;;;;7.13;2.50;;;;;;;26.99;27.13;100012.09;10392221;28;20629;-80
2022/07/14 16:38:03;;;;;;;7.18;2.40;;;;;;;27.18;25.89;100011.44;10392659;28;20053;-79
2022/07/14 16:43:09;;;;;;;7.35;2.30;;;;;;;27.20;27.04;100011.25;10391682;28;20107;-78
2022/07/14 16:48:19;;;;;;;6.70;2.22;;;;;;;27.11;26.77;100007.00;10387763;28;20053;-79
2022/07/14 16:53:21;;;;;;;9.10;2.17;;;;;;;27.11;26.71;100007.00;10393365;28;20068;-79
2022/07/14 16:58:23;;;;;;;4.68;2.30;;;;;;;27.15;26.04;100003.78;10388240;28;20103;-79
2022/07/14 17:03:24;;;;;;;5.05;2.10;;;;;;;26.90;26.58;100007.06;10385914;28;20061;-79
2022/07/14 17:08:26;;;;;;;6.63;2.10;;;;;;;26.68;26.64;100006.25;10394535;28;20060;-79
2022/07/14 17:13:28;;;;;;;5.45;2.00;;;;;;;26.31;25.96;100015.38;10395139;28;20054;-79
2022/07/14 17:18:30;;;;;;;6.03;2.20;;;;;;;26.30;27.35;100026.28;10395904;28;20054;-78
2022/07/14 17:23:33;;;;;;;10.70;2.17;;;;;;;26.31;26.35;100025.25;10393106;28;20556;-79
2022/07/14 17:28:35;;;;;;;6.22;1.88;;;;;;;26.00;27.02;100027.41;10394060;28;20049;-79
2022/07/14 17:33:37;;;;;;;6.40;2.05;;;;;;;25.96;27.01;100039.53;10409805;28;20119;-79
2022/07/14 17:38:39;;;;;;;11.02;2.10;;;;;;;25.86;27.92;100027.19;10385063;28;20064;-79
2022/07/14 17:43:41;;;;;;;8.25;2.30;;;;;;;25.88;27.84;100035.03;10390916;28;20518;-79
2022/07/14 17:48:43;;;;;;;8.30;2.03;;;;;;;25.92;27.24;100041.69;10387790;28;20041;-79
2022/07/14 17:53:45;;;;;;;6.40;2.10;;;;;;;25.70;27.45;100043.47;10384706;28;20053;-78
2022/07/14 17:59:10;;;;;;;10.40;2.17;;;;;;;25.45;28.00;100060.84;10382064;28;21081;-79
2022/07/14 18:04:11;;;;;;;7.38;1.80;;;;;;;25.09;28.26;100059.84;10388774;28;20111;-79
2022/07/14 18:09:22;;;;;;;4.32;1.83;;;;;;;25.01;27.95;100060.75;10387568;28;20052;-78
2022/07/14 18:14:24;;;;;;;8.02;1.80;;;;;;;24.93;28.74;100058.16;10384617;28;20084;-78
2022/07/14 18:19:26;;;;;;;4.38;1.88;;;;;;;24.86;29.51;100070.56;10388288;28;21034;-79
2022/07/14 18:24:28;;;;;;;4.05;1.92;;;;;;;24.91;29.01;100073.56;10383832;28;20045;-79
2022/07/14 18:29:30;;;;;;;5.57;2.33;;;;;;;24.88;29.45;100081.94;10387549;28;20049;-79
2022/07/14 18:34:32;;;;;;;5.82;2.60;;;;;;;24.73;29.67;100083.75;10400972;28;20057;-79
2022/07/14 18:39:34;;;;;;;5.25;2.00;;;;;;;24.68;29.20;100090.56;10383926;28;20049;-79
2022/07/14 18:50:00;;;;;;;5.88;1.98;;;;;;;24.24;29.37;100088.53;10393684;28;20057;-79
2022/07/14 18:55:03;;;;;;;4.75;2.00;;;;;;;23.98;30.12;100097.81;10392638;28;20057;-79
2022/07/14 19:00:08;;;;;;;5.13;1.70;;;;;;;23.86;29.68;100112.56;10392382;28;20053;-80
2022/07/14 19:05:10;;;;;;;7.00;1.90;;;;;;;23.76;30.25;100111.91;10388625;28;20058;-80
2022/07/14 19:10:13;;;;;;;4.32;1.90;;;;;;;23.63;30.25;100123.13;10391175;28;20127;-81
2022/07/14 19:15:14;;;;;;;6.47;2.00;;;;;;;23.42;30.74;100126.34;10391995;28;20057;-81
2022/07/14 19:20:16;;;;;;;6.55;1.70;;;;;;;23.24;30.86;100130.16;10394390;28;20503;-81
2022/07/14 19:25:19;;;;;;;6.85;2.10;;;;;;;22.97;31.38;100136.66;10400480;28;20068;-81
2022/07/14 19:30:21;;;;;;;5.18;2.10;;;;;;;22.77;32.00;100134.47;10396361;28;20100;-81
2022/07/14 19:35:23;;;;;;;5.47;2.10;;;;;;;22.54;32.43;100144.88;10396007;28;20060;-82
2022/07/14 19:40:25;;;;;;;5.22;1.98;;;;;;;22.42;32.35;100155.03;10397694;28;20054;-81
2022/07/14 19:45:29;;;;;;;9.27;1.92;;;;;;;22.28;33.16;100165.47;10397842;28;20065;-81
2022/07/14 19:50:31;;;;;;;5.97;1.98;;;;;;;21.96;33.67;100166.13;10397768;28;20119;-82
2022/07/14 19:55:33;;;;;;;8.98;2.10;;;;;;;21.69;33.79;100174.28;10397316;28;20065;-81
2022/07/14 20:00:36;;;;;;;6.55;2.20;;;;;;;21.55;34.23;100180.16;10397947;28;20395;-81
2022/07/14 20:06:00;;;;;;;5.43;2.10;;;;;;;21.40;34.77;100185.22;10394395;28;20063;-81
2022/07/14 20:11:02;;;;;;;5.32;1.90;;;;;;;21.20;35.08;100182.84;10397010;28;20056;-81
2022/07/14 20:16:04;;;;;;;7.40;1.92;;;;;;;21.14;35.50;100189.63;10395356;28;20053;-81
2022/07/14 20:21:07;;;;;;;5.90;2.15;;;;;;;20.99;35.68;100199.09;10390059;28;20057;-81
2022/07/14 20:26:09;;;;;;;5.38;2.10;;;;;;;20.77;36.33;100191.56;10393670;28;20979;-81
2022/07/14 20:36:41;;;;;;;5.65;1.88;;;;;;;20.44;37.32;100206.28;10397186;28;20431;-81
2022/07/14 20:41:44;;;;;;;4.18;1.90;;;;;;;20.33;37.59;100203.84;10397798;28;20111;-81
2022/07/14 20:52:06;;;;;;;4.22;2.00;;;;;;;19.99;38.45;100210.69;10393612;28;20053;-81
2022/07/14 20:57:11;;;;;;;5.40;1.98;;;;;;;19.87;38.60;100211.81;10396611;28;20100;-81
2022/07/14 21:02:14;;;;;;;5.40;1.95;;;;;;;19.72;38.97;100219.38;10396341;28;20045;-80
2022/07/14 21:07:16;;;;;;;6.95;2.38;;;;;;;19.35;39.50;100221.09;10396142;28;20061;-81
2022/07/14 21:12:19;;;;;;;4.78;1.85;;;;;;;19.22;40.16;100229.31;10396688;28;20056;-80
2022/07/14 21:17:20;;;;;;;4.55;1.90;;;;;;;19.19;40.30;100228.78;10388634;28;20623;-80
2022/07/14 21:22:22;;;;;;;7.82;1.90;;;;;;;18.94;40.39;100238.06;10397574;28;20045;-80
2022/07/14 21:27:24;;;;;;;9.15;2.10;;;;;;;18.84;40.67;100231.91;10395835;28;20053;-80
2022/07/14 21:32:26;;;;;;;7.60;2.15;;;;;;;18.81;40.94;100232.16;10396180;28;20123;-80
2022/07/14 21:37:27;;;;;;;4.30;1.90;;;;;;;18.67;41.49;100240.50;10395187;28;20470;-80
2022/07/14 21:42:29;;;;;;;5.68;1.80;;;;;;;18.58;41.59;100244.00;10387266;28;20053;-81
2022/07/14 21:47:31;;;;;;;5.15;1.92;;;;;;;18.59;42.06;100249.13;10394302;28;20053;-80
2022/07/14 21:52:33;;;;;;;5.97;2.00;;;;;;;18.67;41.75;100261.69;10389879;28;20577;-80
2022/07/14 21:57:35;;;;;;;4.68;1.88;;;;;;;18.75;41.86;100261.88;10388044;28;20065;-80
2022/07/14 22:02:37;;;;;;;4.45;1.80;;;;;;;18.71;42.08;100257.00;10396006;28;20072;-80
2022/07/14 22:07:38;;;;;;;5.25;1.80;;;;;;;18.71;41.89;100265.75;10393966;28;20060;-80
2022/07/14 22:12:40;;;;;;;4.88;1.75;;;;;;;18.68;41.91;100263.41;10395369;28;20056;-80
2022/07/14 22:17:43;;;;;;;6.38;2.20;;;;;;;18.55;42.37;100268.94;10394921;28;20473;-80
2022/07/14 22:23:05;;;;;;;5.13;1.85;;;;;;;18.39;42.47;100273.03;10396160;28;20075;-81
2022/07/14 22:28:06;;;;;;;7.47;1.80;;;;;;;18.21;42.65;100275.47;10386863;28;20065;-80
2022/07/14 22:33:08;;;;;;;8.25;1.73;;;;;;;18.11;43.04;100274.56;10388160;28;20110;-81
2022/07/14 22:38:10;;;;;;;4.55;1.90;;;;;;;17.97;43.20;100282.84;10393192;28;20060;-80
2022/07/14 22:43:12;;;;;;;6.00;1.98;;;;;;;17.68;43.46;100281.78;10397236;28;20091;-80
2022/07/14 22:48:14;;;;;;;6.13;1.80;;;;;;;17.23;44.66;100286.41;10394232;28;21113;-80
2022/07/14 22:53:16;;;;;;;7.20;2.05;;;;;;;17.24;44.82;100285.41;10404108;28;20194;-80
2022/07/14 22:58:17;;;;;;;5.35;1.90;;;;;;;16.94;45.09;100287.91;10402948;28;20049;-80
2022/07/14 23:03:19;;;;;;;4.78;2.05;;;;;;;17.29;44.54;100283.25;10404524;28;20099;-81
2022/07/14 23:08:21;;;;;;;7.97;2.10;;;;;;;17.39;45.23;100289.50;10412112;28;20499;-80
2022/07/14 23:13:23;;;;;;;4.35;1.88;;;;;;;17.48;44.84;100290.53;10404597;28;20053;-80
2022/07/14 23:18:25;;;;;;;4.70;2.10;;;;;;;17.46;45.21;100281.91;10400836;28;20494;-80
2022/07/14 23:23:26;;;;;;;10.13;2.72;;;;;;;17.31;45.60;100305.09;10401672;28;20069;-80
2022/07/14 23:28:29;;;;;;;8.70;2.10;;;;;;;17.24;45.85;100293.34;10398063;28;20096;-80
2022/07/14 23:33:31;;;;;;;5.97;2.00;;;;;;;17.07;45.84;100300.97;10403109;28;20045;-80
2022/07/14 23:38:32;;;;;;;3.35;1.65;;;;;;;16.88;46.40;100305.09;10401228;28;20055;-80
2022/07/14 23:43:34;;;;;;;5.47;1.80;;;;;;;16.95;46.38;100308.94;10400441;28;20490;-80
2022/07/14 23:48:36;;;;;;;5.70;1.90;;;;;;;16.82;46.80;100313.50;10399157;28;20099;-80
2022/07/14 23:53:38;;;;;;;4.88;1.90;;;;;;;16.46;47.33;100315.56;10395648;28;20057;-80